Aldergrove, Canada
Current Conditions -  °F | °C
As of 5:00 AM on Thursday 30 Oct 2014 (Local Time) from CYXX Reporting Station
Broken Clouds Broken Clouds  
Wind Chill: 52°   Ceiling: 7000
Heat Index: 52°   Visibility: 10mi
Dew Point: 46°   Wind: 5mph
Humidity: 82%   Direction: 60°ENE
Pressure: 29.96"   Gusts: NA
Location:  49.06°N, 122.46°W
Report Text: CYXX 301200Z 06004KT 10SM BKN070 11/08 A2996 RMK AC7 SLP146
Loading
Personal Weather Stations






























Interactive Weather Map
Tropical Storm Tracking
New forecast layout! Learn more

10-Day Weather Forecast

Advertisements
Track Severe Weather on mobile